sensor_id;sensor_type;location;lat;lon;timestamp;P1;durP1;ratioP1;P2;durP2;ratioP2
6292;SDS011;3179;54.350;10.102;2023-04-03T00:00:03;3.97;;;1.97;;
6292;SDS011;3179;54.350;10.102;2023-04-03T00:02:31;5.27;;;2.37;;
6292;SDS011;3179;54.350;10.102;2023-04-03T00:04:58;2.83;;;2.10;;
6292;SDS011;3179;54.350;10.102;2023-04-03T00:07:27;5.53;;;2.33;;
6292;SDS011;3179;54.350;10.102;2023-04-03T00:09:53;3.50;;;2.10;;
6292;SDS011;3179;54.350;10.102;2023-04-03T00:12:20;4.00;;;2.53;;
6292;SDS011;3179;54.350;10.102;2023-04-03T00:14:47;5.37;;;2.93;;
6292;SDS011;3179;54.350;10.102;2023-04-03T00:17:14;4.23;;;2.30;;
6292;SDS011;3179;54.350;10.102;2023-04-03T00:19:40;2.50;;;2.20;;
6292;SDS011;3179;54.350;10.102;2023-04-03T00:22:07;3.30;;;2.10;;
6292;SDS011;3179;54.350;10.102;2023-04-03T00:24:35;3.67;;;2.40;;
6292;SDS011;3179;54.350;10.102;2023-04-03T00:27:02;4.20;;;2.50;;
6292;SDS011;3179;54.350;10.102;2023-04-03T00:29:29;2.67;;;2.00;;
6292;SDS011;3179;54.350;10.102;2023-04-03T00:31:56;4.27;;;1.73;;
6292;SDS011;3179;54.350;10.102;2023-04-03T00:34:22;3.33;;;1.80;;
6292;SDS011;3179;54.350;10.102;2023-04-03T00:36:49;2.43;;;1.90;;
6292;SDS011;3179;54.350;10.102;2023-04-03T00:39:16;2.30;;;1.73;;
6292;SDS011;3179;54.350;10.102;2023-04-03T00:41:45;5.17;;;2.53;;
6292;SDS011;3179;54.350;10.102;2023-04-03T00:44:22;4.37;;;2.27;;
6292;SDS011;3179;54.350;10.102;2023-04-03T00:47:26;1.67;;;1.50;;
6292;SDS011;3179;54.350;10.102;2023-04-03T00:49:54;1.63;;;1.53;;
6292;SDS011;3179;54.350;10.102;2023-04-03T00:52:22;4.50;;;2.20;;
6292;SDS011;3179;54.350;10.102;2023-04-03T00:54:52;3.30;;;1.70;;
6292;SDS011;3179;54.350;10.102;2023-04-03T00:57:24;1.80;;;1.67;;
6292;SDS011;3179;54.350;10.102;2023-04-03T00:59:52;3.07;;;1.93;;
6292;SDS011;3179;54.350;10.102;2023-04-03T01:02:23;2.73;;;1.70;;
6292;SDS011;3179;54.350;10.102;2023-04-03T01:04:51;5.97;;;2.13;;
6292;SDS011;3179;54.350;10.102;2023-04-03T01:07:18;2.60;;;1.73;;
6292;SDS011;3179;54.350;10.102;2023-04-03T01:09:48;2.37;;;1.73;;
6292;SDS011;3179;54.350;10.102;2023-04-03T01:12:19;3.43;;;1.80;;
6292;SDS011;3179;54.350;10.102;2023-04-03T01:14:50;2.67;;;2.00;;
6292;SDS011;3179;54.350;10.102;2023-04-03T01:17:25;4.63;;;1.80;;
6292;SDS011;3179;54.350;10.102;2023-04-03T01:19:57;3.27;;;1.60;;
6292;SDS011;3179;54.350;10.102;2023-04-03T01:22:41;2.07;;;1.63;;
6292;SDS011;3179;54.350;10.102;2023-04-03T01:25:15;2.27;;;1.70;;
6292;SDS011;3179;54.350;10.102;2023-04-03T01:27:42;2.10;;;1.80;;
6292;SDS011;3179;54.350;10.102;2023-04-03T01:30:11;3.50;;;1.87;;
6292;SDS011;3179;54.350;10.102;2023-04-03T01:32:43;3.23;;;1.80;;
6292;SDS011;3179;54.350;10.102;2023-04-03T01:35:10;2.93;;;1.87;;
6292;SDS011;3179;54.350;10.102;2023-04-03T01:37:37;2.80;;;1.70;;
6292;SDS011;3179;54.350;10.102;2023-04-03T01:40:04;4.07;;;2.10;;
6292;SDS011;3179;54.350;10.102;2023-04-03T01:42:33;3.87;;;2.53;;
6292;SDS011;3179;54.350;10.102;2023-04-03T01:45:00;4.03;;;2.23;;
6292;SDS011;3179;54.350;10.102;2023-04-03T01:47:26;2.00;;;1.80;;
6292;SDS011;3179;54.350;10.102;2023-04-03T01:49:54;3.20;;;1.73;;
6292;SDS011;3179;54.350;10.102;2023-04-03T01:52:21;3.90;;;1.97;;
6292;SDS011;3179;54.350;10.102;2023-04-03T01:54:50;2.67;;;1.90;;
6292;SDS011;3179;54.350;10.102;2023-04-03T01:57:17;6.20;;;1.97;;
6292;SDS011;3179;54.350;10.102;2023-04-03T01:59:43;3.10;;;2.03;;
6292;SDS011;3179;54.350;10.102;2023-04-03T02:02:10;7.33;;;2.00;;
6292;SDS011;3179;54.350;10.102;2023-04-03T02:04:39;2.07;;;1.60;;
6292;SDS011;3179;54.350;10.102;2023-04-03T02:07:07;2.57;;;1.97;;
6292;SDS011;3179;54.350;10.102;2023-04-03T02:09:34;2.07;;;1.87;;
6292;SDS011;3179;54.350;10.102;2023-04-03T02:12:01;3.23;;;2.57;;
6292;SDS011;3179;54.350;10.102;2023-04-03T02:14:28;1.97;;;1.77;;
6292;SDS011;3179;54.350;10.102;2023-04-03T02:16:54;4.30;;;1.80;;
6292;SDS011;3179;54.350;10.102;2023-04-03T02:19:21;2.33;;;1.87;;
6292;SDS011;3179;54.350;10.102;2023-04-03T02:21:48;3.23;;;2.40;;
6292;SDS011;3179;54.350;10.102;2023-04-03T02:24:16;4.37;;;1.87;;
6292;SDS011;3179;54.350;10.102;2023-04-03T02:26:43;1.97;;;1.80;;
6292;SDS011;3179;54.350;10.102;2023-04-03T02:29:10;3.47;;;2.13;;
6292;SDS011;3179;54.350;10.102;2023-04-03T02:31:36;3.00;;;2.10;;
6292;SDS011;3179;54.350;10.102;2023-04-03T02:34:03;3.50;;;2.13;;
6292;SDS011;3179;54.350;10.102;2023-04-03T02:36:30;2.50;;;2.17;;
6292;SDS011;3179;54.350;10.102;2023-04-03T02:38:57;2.73;;;2.00;;
6292;SDS011;3179;54.350;10.102;2023-04-03T02:41:25;2.77;;;2.13;;
6292;SDS011;3179;54.350;10.102;2023-04-03T02:43:58;2.83;;;1.67;;
6292;SDS011;3179;54.350;10.102;2023-04-03T02:46:25;1.90;;;1.80;;
6292;SDS011;3179;54.350;10.102;2023-04-03T02:48:52;5.53;;;2.50;;
6292;SDS011;3179;54.350;10.102;2023-04-03T02:51:18;3.63;;;2.03;;
6292;SDS011;3179;54.350;10.102;2023-04-03T02:53:45;1.77;;;1.67;;
6292;SDS011;3179;54.350;10.102;2023-04-03T02:56:12;5.40;;;2.23;;
6292;SDS011;3179;54.350;10.102;2023-04-03T02:58:40;4.17;;;2.20;;
6292;SDS011;3179;54.350;10.102;2023-04-03T03:01:07;2.43;;;2.03;;
6292;SDS011;3179;54.350;10.102;2023-04-03T03:03:33;5.03;;;2.10;;
6292;SDS011;3179;54.350;10.102;2023-04-03T03:06:01;2.40;;;1.63;;
6292;SDS011;3179;54.350;10.102;2023-04-03T03:08:28;2.97;;;2.37;;
6292;SDS011;3179;54.350;10.102;2023-04-03T03:10:55;2.30;;;1.77;;
6292;SDS011;3179;54.350;10.102;2023-04-03T03:13:22;2.40;;;1.70;;
6292;SDS011;3179;54.350;10.102;2023-04-03T03:15:50;3.13;;;1.73;;
6292;SDS011;3179;54.350;10.102;2023-04-03T03:18:17;2.70;;;2.27;;
6292;SDS011;3179;54.350;10.102;2023-04-03T03:20:44;3.83;;;2.40;;
6292;SDS011;3179;54.350;10.102;2023-04-03T03:23:11;6.67;;;2.60;;
6292;SDS011;3179;54.350;10.102;2023-04-03T03:25:37;4.33;;;2.80;;
6292;SDS011;3179;54.350;10.102;2023-04-03T03:28:04;2.30;;;1.90;;
6292;SDS011;3179;54.350;10.102;2023-04-03T03:30:31;3.20;;;2.57;;
6292;SDS011;3179;54.350;10.102;2023-04-03T03:32:59;4.13;;;2.20;;
6292;SDS011;3179;54.350;10.102;2023-04-03T03:35:26;3.10;;;2.00;;
6292;SDS011;3179;54.350;10.102;2023-04-03T03:37:53;3.77;;;2.27;;
6292;SDS011;3179;54.350;10.102;2023-04-03T03:40:19;3.10;;;2.47;;
6292;SDS011;3179;54.350;10.102;2023-04-03T03:42:46;3.13;;;2.40;;
6292;SDS011;3179;54.350;10.102;2023-04-03T03:45:13;4.27;;;2.30;;
6292;SDS011;3179;54.350;10.102;2023-04-03T03:47:40;3.43;;;1.93;;
6292;SDS011;3179;54.350;10.102;2023-04-03T03:50:08;2.90;;;1.97;;
6292;SDS011;3179;54.350;10.102;2023-04-03T03:52:36;3.67;;;2.40;;
6292;SDS011;3179;54.350;10.102;2023-04-03T03:55:04;3.13;;;2.40;;
6292;SDS011;3179;54.350;10.102;2023-04-03T03:57:31;4.87;;;2.20;;
6292;SDS011;3179;54.350;10.102;2023-04-03T03:59:57;5.83;;;2.23;;
6292;SDS011;3179;54.350;10.102;2023-04-03T04:02:24;2.30;;;2.03;;
6292;SDS011;3179;54.350;10.102;2023-04-03T04:04:51;3.30;;;2.60;;
6292;SDS011;3179;54.350;10.102;2023-04-03T04:07:19;2.90;;;2.20;;
6292;SDS011;3179;54.350;10.102;2023-04-03T04:09:46;5.83;;;2.37;;
6292;SDS011;3179;54.350;10.102;2023-04-03T04:12:12;3.47;;;2.10;;
6292;SDS011;3179;54.350;10.102;2023-04-03T04:14:39;4.43;;;2.10;;
6292;SDS011;3179;54.350;10.102;2023-04-03T04:17:06;2.70;;;2.00;;
6292;SDS011;3179;54.350;10.102;2023-04-03T04:19:33;3.60;;;2.40;;
6292;SDS011;3179;54.350;10.102;2023-04-03T04:21:59;1.97;;;1.77;;
6292;SDS011;3179;54.350;10.102;2023-04-03T04:24:28;3.17;;;2.30;;
6292;SDS011;3179;54.350;10.102;2023-04-03T04:26:54;3.70;;;2.17;;
6292;SDS011;3179;54.350;10.102;2023-04-03T04:29:21;2.60;;;2.40;;
6292;SDS011;3179;54.350;10.102;2023-04-03T04:31:48;4.20;;;2.00;;
6292;SDS011;3179;54.350;10.102;2023-04-03T04:34:15;5.43;;;2.17;;
6292;SDS011;3179;54.350;10.102;2023-04-03T04:36:42;3.33;;;2.27;;
6292;SDS011;3179;54.350;10.102;2023-04-03T04:39:08;4.67;;;2.17;;
6292;SDS011;3179;54.350;10.102;2023-04-03T04:41:37;2.87;;;2.10;;
6292;SDS011;3179;54.350;10.102;2023-04-03T04:44:03;3.67;;;2.30;;
6292;SDS011;3179;54.350;10.102;2023-04-03T04:46:30;4.67;;;2.50;;
6292;SDS011;3179;54.350;10.102;2023-04-03T04:48:58;3.23;;;2.50;;
6292;SDS011;3179;54.350;10.102;2023-04-03T04:51:25;3.80;;;2.10;;
6292;SDS011;3179;54.350;10.102;2023-04-03T04:53:51;2.73;;;2.23;;
6292;SDS011;3179;54.350;10.102;2023-04-03T04:56:18;2.83;;;1.83;;
6292;SDS011;3179;54.350;10.102;2023-04-03T04:58:47;2.57;;;2.20;;
6292;SDS011;3179;54.350;10.102;2023-04-03T05:01:14;2.93;;;2.17;;
6292;SDS011;3179;54.350;10.102;2023-04-03T05:03:40;2.80;;;2.60;;
6292;SDS011;3179;54.350;10.102;2023-04-03T05:06:08;4.40;;;3.00;;
6292;SDS011;3179;54.350;10.102;2023-04-03T05:08:34;3.03;;;2.73;;
6292;SDS011;3179;54.350;10.102;2023-04-03T05:11:01;4.23;;;2.80;;
6292;SDS011;3179;54.350;10.102;2023-04-03T05:13:28;3.27;;;2.90;;
6292;SDS011;3179;54.350;10.102;2023-04-03T05:15:56;5.57;;;3.10;;
6292;SDS011;3179;54.350;10.102;2023-04-03T05:18:23;6.00;;;3.70;;
6292;SDS011;3179;54.350;10.102;2023-04-03T05:20:50;7.60;;;4.77;;
6292;SDS011;3179;54.350;10.102;2023-04-03T05:23:17;6.00;;;4.40;;
6292;SDS011;3179;54.350;10.102;2023-04-03T05:25:44;6.07;;;4.33;;
6292;SDS011;3179;54.350;10.102;2023-04-03T05:28:12;8.00;;;5.70;;
6292;SDS011;3179;54.350;10.102;2023-04-03T05:30:38;8.67;;;5.70;;
6292;SDS011;3179;54.350;10.102;2023-04-03T05:33:06;6.57;;;4.87;;
6292;SDS011;3179;54.350;10.102;2023-04-03T05:35:35;8.83;;;5.90;;
6292;SDS011;3179;54.350;10.102;2023-04-03T05:38:04;9.50;;;5.37;;
6292;SDS011;3179;54.350;10.102;2023-04-03T05:40:31;8.50;;;5.87;;
6292;SDS011;3179;54.350;10.102;2023-04-03T05:42:58;6.87;;;5.30;;
6292;SDS011;3179;54.350;10.102;2023-04-03T05:45:24;9.97;;;5.13;;
6292;SDS011;3179;54.350;10.102;2023-04-03T05:47:51;8.13;;;4.90;;
6292;SDS011;3179;54.350;10.102;2023-04-03T05:50:19;4.90;;;4.40;;
6292;SDS011;3179;54.350;10.102;2023-04-03T05:52:47;5.53;;;3.90;;
6292;SDS011;3179;54.350;10.102;2023-04-03T05:55:15;6.30;;;4.40;;
6292;SDS011;3179;54.350;10.102;2023-04-03T05:57:43;6.10;;;4.20;;
6292;SDS011;3179;54.350;10.102;2023-04-03T06:00:11;10.10;;;4.17;;
6292;SDS011;3179;54.350;10.102;2023-04-03T06:02:40;5.90;;;4.10;;
6292;SDS011;3179;54.350;10.102;2023-04-03T06:05:08;4.23;;;3.43;;
6292;SDS011;3179;54.350;10.102;2023-04-03T06:07:38;5.10;;;3.43;;
6292;SDS011;3179;54.350;10.102;2023-04-03T06:10:05;5.37;;;3.70;;
6292;SDS011;3179;54.350;10.102;2023-04-03T06:12:33;5.23;;;3.33;;
6292;SDS011;3179;54.350;10.102;2023-04-03T06:15:00;4.10;;;3.13;;
6292;SDS011;3179;54.350;10.102;2023-04-03T06:17:27;5.10;;;3.60;;
6292;SDS011;3179;54.350;10.102;2023-04-03T06:19:54;4.63;;;3.20;;
6292;SDS011;3179;54.350;10.102;2023-04-03T06:22:23;3.77;;;3.03;;
6292;SDS011;3179;54.350;10.102;2023-04-03T06:24:52;5.70;;;3.37;;
6292;SDS011;3179;54.350;10.102;2023-04-03T06:27:19;6.73;;;3.67;;
6292;SDS011;3179;54.350;10.102;2023-04-03T06:29:46;4.43;;;3.90;;
6292;SDS011;3179;54.350;10.102;2023-04-03T06:32:13;6.03;;;3.07;;
6292;SDS011;3179;54.350;10.102;2023-04-03T06:34:40;3.17;;;2.67;;
6292;SDS011;3179;54.350;10.102;2023-04-03T06:37:10;5.00;;;3.13;;
6292;SDS011;3179;54.350;10.102;2023-04-03T06:39:37;10.30;;;3.27;;
6292;SDS011;3179;54.350;10.102;2023-04-03T06:42:06;5.53;;;3.70;;
6292;SDS011;3179;54.350;10.102;2023-04-03T06:44:33;6.80;;;4.10;;
6292;SDS011;3179;54.350;10.102;2023-04-03T06:47:00;6.97;;;4.13;;
6292;SDS011;3179;54.350;10.102;2023-04-03T06:49:27;8.20;;;4.67;;
6292;SDS011;3179;54.350;10.102;2023-04-03T06:51:54;8.27;;;3.90;;
6292;SDS011;3179;54.350;10.102;2023-04-03T06:54:21;5.90;;;4.57;;
6292;SDS011;3179;54.350;10.102;2023-04-03T06:56:48;6.63;;;3.80;;
6292;SDS011;3179;54.350;10.102;2023-04-03T06:59:17;4.30;;;3.10;;
6292;SDS011;3179;54.350;10.102;2023-04-03T07:01:44;8.20;;;4.40;;
6292;SDS011;3179;54.350;10.102;2023-04-03T07:04:12;5.93;;;3.57;;
6292;SDS011;3179;54.350;10.102;2023-04-03T07:06:39;4.07;;;3.30;;
6292;SDS011;3179;54.350;10.102;2023-04-03T07:09:06;3.90;;;3.43;;
6292;SDS011;3179;54.350;10.102;2023-04-03T07:11:34;5.30;;;3.30;;
6292;SDS011;3179;54.350;10.102;2023-04-03T07:14:01;3.77;;;2.73;;
6292;SDS011;3179;54.350;10.102;2023-04-03T07:16:29;5.37;;;3.00;;
6292;SDS011;3179;54.350;10.102;2023-04-03T07:18:56;5.60;;;3.50;;
6292;SDS011;3179;54.350;10.102;2023-04-03T07:21:23;5.53;;;3.00;;
6292;SDS011;3179;54.350;10.102;2023-04-03T07:23:51;4.90;;;2.53;;
6292;SDS011;3179;54.350;10.102;2023-04-03T07:26:17;5.27;;;2.67;;
6292;SDS011;3179;54.350;10.102;2023-04-03T07:28:45;3.13;;;2.47;;
6292;SDS011;3179;54.350;10.102;2023-04-03T07:31:14;3.53;;;2.07;;
6292;SDS011;3179;54.350;10.102;2023-04-03T07:33:43;2.60;;;2.40;;
6292;SDS011;3179;54.350;10.102;2023-04-03T07:36:13;4.13;;;2.30;;
6292;SDS011;3179;54.350;10.102;2023-04-03T07:38:42;5.77;;;2.30;;
6292;SDS011;3179;54.350;10.102;2023-04-03T07:41:11;4.50;;;2.47;;
6292;SDS011;3179;54.350;10.102;2023-04-03T07:43:40;5.63;;;2.30;;
6292;SDS011;3179;54.350;10.102;2023-04-03T07:46:07;4.13;;;2.47;;
6292;SDS011;3179;54.350;10.102;2023-04-03T07:48:34;2.50;;;2.27;;
6292;SDS011;3179;54.350;10.102;2023-04-03T07:51:02;7.00;;;2.30;;
6292;SDS011;3179;54.350;10.102;2023-04-03T07:53:30;2.87;;;1.60;;
6292;SDS011;3179;54.350;10.102;2023-04-03T07:55:58;3.20;;;1.70;;
6292;SDS011;3179;54.350;10.102;2023-04-03T07:58:25;6.83;;;1.90;;
6292;SDS011;3179;54.350;10.102;2023-04-03T08:00:52;2.50;;;1.10;;
6292;SDS011;3179;54.350;10.102;2023-04-03T08:03:19;3.60;;;1.17;;
6292;SDS011;3179;54.350;10.102;2023-04-03T08:05:46;3.53;;;1.20;;
6292;SDS011;3179;54.350;10.102;2023-04-03T08:08:16;3.60;;;1.10;;
6292;SDS011;3179;54.350;10.102;2023-04-03T08:10:47;2.60;;;1.40;;
6292;SDS011;3179;54.350;10.102;2023-04-03T08:13:15;3.30;;;0.97;;
6292;SDS011;3179;54.350;10.102;2023-04-03T08:15:42;1.50;;;1.00;;
6292;SDS011;3179;54.350;10.102;2023-04-03T08:18:09;1.17;;;0.97;;
6292;SDS011;3179;54.350;10.102;2023-04-03T08:20:37;3.13;;;0.90;;
6292;SDS011;3179;54.350;10.102;2023-04-03T08:23:05;4.80;;;1.07;;
6292;SDS011;3179;54.350;10.102;2023-04-03T08:25:34;2.30;;;1.30;;
6292;SDS011;3179;54.350;10.102;2023-04-03T08:28:03;5.77;;;1.30;;
6292;SDS011;3179;54.350;10.102;2023-04-03T08:30:30;3.03;;;1.27;;
6292;SDS011;3179;54.350;10.102;2023-04-03T08:32:57;1.57;;;0.80;;
6292;SDS011;3179;54.350;10.102;2023-04-03T08:35:26;1.80;;;1.03;;
6292;SDS011;3179;54.350;10.102;2023-04-03T08:37:53;1.83;;;0.80;;
6292;SDS011;3179;54.350;10.102;2023-04-03T08:40:21;3.40;;;1.00;;
6292;SDS011;3179;54.350;10.102;2023-04-03T08:42:53;3.83;;;1.17;;
6292;SDS011;3179;54.350;10.102;2023-04-03T08:45:33;0.83;;;0.60;;
6292;SDS011;3179;54.350;10.102;2023-04-03T08:48:11;2.77;;;1.23;;
6292;SDS011;3179;54.350;10.102;2023-04-03T08:50:42;4.97;;;0.90;;
6292;SDS011;3179;54.350;10.102;2023-04-03T08:53:14;0.77;;;0.70;;
6292;SDS011;3179;54.350;10.102;2023-04-03T08:55:42;5.03;;;1.13;;
6292;SDS011;3179;54.350;10.102;2023-04-03T08:58:14;3.27;;;1.20;;
6292;SDS011;3179;54.350;10.102;2023-04-03T09:00:43;2.77;;;0.80;;
6292;SDS011;3179;54.350;10.102;2023-04-03T09:03:12;4.33;;;1.00;;
6292;SDS011;3179;54.350;10.102;2023-04-03T09:05:41;2.23;;;0.87;;
6292;SDS011;3179;54.350;10.102;2023-04-03T09:08:16;1.93;;;0.70;;
6292;SDS011;3179;54.350;10.102;2023-04-03T09:10:52;1.33;;;1.00;;
6292;SDS011;3179;54.350;10.102;2023-04-03T09:13:29;2.77;;;0.97;;
6292;SDS011;3179;54.350;10.102;2023-04-03T09:16:02;1.90;;;1.00;;
6292;SDS011;3179;54.350;10.102;2023-04-03T09:18:36;2.50;;;1.23;;
6292;SDS011;3179;54.350;10.102;2023-04-03T09:21:12;2.40;;;0.90;;
6292;SDS011;3179;54.350;10.102;2023-04-03T09:23:44;2.20;;;1.03;;
6292;SDS011;3179;54.350;10.102;2023-04-03T09:26:16;2.40;;;1.07;;
6292;SDS011;3179;54.350;10.102;2023-04-03T09:28:47;1.17;;;0.83;;
6292;SDS011;3179;54.350;10.102;2023-04-03T09:31:19;1.80;;;1.07;;
6292;SDS011;3179;54.350;10.102;2023-04-03T09:33:47;2.93;;;0.90;;
6292;SDS011;3179;54.350;10.102;2023-04-03T09:39:05;2.40;;;1.03;;
6292;SDS011;3179;54.350;10.102;2023-04-03T09:41:35;2.67;;;1.10;;
6292;SDS011;3179;54.350;10.102;2023-04-03T09:44:04;1.83;;;1.10;;
6292;SDS011;3179;54.350;10.102;2023-04-03T09:46:46;3.17;;;1.30;;
6292;SDS011;3179;54.350;10.102;2023-04-03T09:49:13;7.30;;;1.30;;
6292;SDS011;3179;54.350;10.102;2023-04-03T09:51:39;1.70;;;1.20;;
6292;SDS011;3179;54.350;10.102;2023-04-03T09:56:57;1.10;;;0.70;;
6292;SDS011;3179;54.350;10.102;2023-04-03T09:59:29;1.17;;;0.93;;
6292;SDS011;3179;54.350;10.102;2023-04-03T10:01:58;5.17;;;0.90;;
6292;SDS011;3179;54.350;10.102;2023-04-03T10:04:28;1.53;;;0.87;;
6292;SDS011;3179;54.350;10.102;2023-04-03T10:07:04;2.17;;;1.00;;
6292;SDS011;3179;54.350;10.102;2023-04-03T10:09:59;1.50;;;1.30;;
6292;SDS011;3179;54.350;10.102;2023-04-03T10:12:28;4.17;;;1.30;;
6292;SDS011;3179;54.350;10.102;2023-04-03T10:14:57;2.47;;;0.93;;
6292;SDS011;3179;54.350;10.102;2023-04-03T10:17:29;1.70;;;1.07;;
6292;SDS011;3179;54.350;10.102;2023-04-03T10:20:06;2.77;;;0.90;;
6292;SDS011;3179;54.350;10.102;2023-04-03T10:22:49;2.70;;;1.00;;
6292;SDS011;3179;54.350;10.102;2023-04-03T10:25:27;2.00;;;1.10;;
6292;SDS011;3179;54.350;10.102;2023-04-03T10:27:59;3.43;;;1.30;;
6292;SDS011;3179;54.350;10.102;2023-04-03T10:30:31;1.77;;;1.30;;
6292;SDS011;3179;54.350;10.102;2023-04-03T10:33:14;1.10;;;1.00;;
6292;SDS011;3179;54.350;10.102;2023-04-03T10:35:50;3.27;;;1.20;;
6292;SDS011;3179;54.350;10.102;2023-04-03T10:38:30;1.93;;;0.90;;
6292;SDS011;3179;54.350;10.102;2023-04-03T10:41:07;3.30;;;0.90;;
6292;SDS011;3179;54.350;10.102;2023-04-03T10:43:40;2.50;;;1.27;;
6292;SDS011;3179;54.350;10.102;2023-04-03T10:46:12;5.07;;;1.50;;
6292;SDS011;3179;54.350;10.102;2023-04-03T10:48:50;1.33;;;0.90;;
6292;SDS011;3179;54.350;10.102;2023-04-03T10:51:34;2.97;;;1.00;;
6292;SDS011;3179;54.350;10.102;2023-04-03T10:54:08;2.17;;;1.07;;
6292;SDS011;3179;54.350;10.102;2023-04-03T10:56:39;2.13;;;0.97;;
6292;SDS011;3179;54.350;10.102;2023-04-03T10:59:14;1.87;;;0.90;;
6292;SDS011;3179;54.350;10.102;2023-04-03T11:01:47;3.53;;;1.00;;
6292;SDS011;3179;54.350;10.102;2023-04-03T11:04:17;4.73;;;1.17;;
6292;SDS011;3179;54.350;10.102;2023-04-03T11:06:47;2.50;;;1.23;;
6292;SDS011;3179;54.350;10.102;2023-04-03T11:09:19;3.63;;;1.40;;
6292;SDS011;3179;54.350;10.102;2023-04-03T11:11:51;5.80;;;1.30;;
6292;SDS011;3179;54.350;10.102;2023-04-03T11:14:24;2.80;;;0.80;;
6292;SDS011;3179;54.350;10.102;2023-04-03T11:17:01;1.60;;;0.90;;
6292;SDS011;3179;54.350;10.102;2023-04-03T11:19:39;1.70;;;0.87;;
6292;SDS011;3179;54.350;10.102;2023-04-03T11:22:13;1.17;;;0.60;;
6292;SDS011;3179;54.350;10.102;2023-04-03T11:24:51;1.90;;;0.90;;
6292;SDS011;3179;54.350;10.102;2023-04-03T11:27:24;1.23;;;0.70;;
6292;SDS011;3179;54.350;10.102;2023-04-03T11:29:55;1.87;;;1.07;;
6292;SDS011;3179;54.350;10.102;2023-04-03T11:32:31;2.00;;;0.90;;
6292;SDS011;3179;54.350;10.102;2023-04-03T11:35:12;2.30;;;0.67;;
6292;SDS011;3179;54.350;10.102;2023-04-03T11:37:40;2.07;;;1.10;;
6292;SDS011;3179;54.350;10.102;2023-04-03T11:40:18;2.30;;;0.77;;
6292;SDS011;3179;54.350;10.102;2023-04-03T11:42:48;0.97;;;0.97;;
6292;SDS011;3179;54.350;10.102;2023-04-03T11:57:23;4.50;;;0.93;;
6292;SDS011;3179;54.350;10.102;2023-04-03T12:06:47;3.00;;;0.87;;
6292;SDS011;3179;54.350;10.102;2023-04-03T12:09:28;1.93;;;1.00;;
6292;SDS011;3179;54.350;10.102;2023-04-03T12:12:01;2.47;;;0.83;;
6292;SDS011;3179;54.350;10.102;2023-04-03T12:14:53;3.10;;;0.90;;
6292;SDS011;3179;54.350;10.102;2023-04-03T12:17:20;2.60;;;0.90;;
6292;SDS011;3179;54.350;10.102;2023-04-03T12:19:52;2.50;;;0.77;;
6292;SDS011;3179;54.350;10.102;2023-04-03T12:22:19;0.80;;;0.80;;
6292;SDS011;3179;54.350;10.102;2023-04-03T12:24:47;1.87;;;0.80;;
6292;SDS011;3179;54.350;10.102;2023-04-03T12:27:30;3.73;;;1.00;;
6292;SDS011;3179;54.350;10.102;2023-04-03T12:30:11;3.13;;;1.47;;
6292;SDS011;3179;54.350;10.102;2023-04-03T12:32:44;1.50;;;0.97;;
6292;SDS011;3179;54.350;10.102;2023-04-03T12:35:26;3.50;;;0.87;;
6292;SDS011;3179;54.350;10.102;2023-04-03T12:38:01;2.70;;;0.90;;
6292;SDS011;3179;54.350;10.102;2023-04-03T12:40:53;3.83;;;1.13;;
6292;SDS011;3179;54.350;10.102;2023-04-03T12:43:34;2.57;;;1.00;;
6292;SDS011;3179;54.350;10.102;2023-04-03T12:46:11;5.87;;;0.93;;
6292;SDS011;3179;54.350;10.102;2023-04-03T12:48:46;2.50;;;1.10;;
6292;SDS011;3179;54.350;10.102;2023-04-03T12:51:18;1.10;;;0.90;;
6292;SDS011;3179;54.350;10.102;2023-04-03T12:53:47;3.20;;;0.87;;
6292;SDS011;3179;54.350;10.102;2023-04-03T12:56:19;2.10;;;0.90;;
6292;SDS011;3179;54.350;10.102;2023-04-03T12:58:48;1.83;;;1.00;;
6292;SDS011;3179;54.350;10.102;2023-04-03T13:01:18;2.97;;;1.07;;
6292;SDS011;3179;54.350;10.102;2023-04-03T13:03:49;2.20;;;1.00;;
6292;SDS011;3179;54.350;10.102;2023-04-03T13:06:21;2.97;;;1.00;;
6292;SDS011;3179;54.350;10.102;2023-04-03T13:08:49;4.57;;;1.23;;
6292;SDS011;3179;54.350;10.102;2023-04-03T13:11:17;1.60;;;0.90;;
6292;SDS011;3179;54.350;10.102;2023-04-03T13:13:56;2.30;;;0.90;;
6292;SDS011;3179;54.350;10.102;2023-04-03T13:16:24;1.00;;;0.90;;
6292;SDS011;3179;54.350;10.102;2023-04-03T13:18:51;1.73;;;0.87;;
6292;SDS011;3179;54.350;10.102;2023-04-03T13:21:21;0.93;;;0.80;;
6292;SDS011;3179;54.350;10.102;2023-04-03T13:23:51;4.40;;;1.23;;
6292;SDS011;3179;54.350;10.102;2023-04-03T13:26:20;2.57;;;0.87;;
6292;SDS011;3179;54.350;10.102;2023-04-03T13:28:48;1.43;;;0.83;;
6292;SDS011;3179;54.350;10.102;2023-04-03T13:31:20;2.10;;;1.03;;
6292;SDS011;3179;54.350;10.102;2023-04-03T13:33:55;2.10;;;1.17;;
6292;SDS011;3179;54.350;10.102;2023-04-03T13:36:26;1.10;;;1.00;;
6292;SDS011;3179;54.350;10.102;2023-04-03T13:39:00;2.40;;;0.93;;
6292;SDS011;3179;54.350;10.102;2023-04-03T13:41:30;3.60;;;0.93;;
6292;SDS011;3179;54.350;10.102;2023-04-03T13:44:16;1.83;;;0.93;;
6292;SDS011;3179;54.350;10.102;2023-04-03T13:46:51;4.30;;;2.57;;
6292;SDS011;3179;54.350;10.102;2023-04-03T13:49:20;2.00;;;1.07;;
6292;SDS011;3179;54.350;10.102;2023-04-03T13:51:49;4.40;;;1.03;;
6292;SDS011;3179;54.350;10.102;2023-04-03T13:54:18;2.80;;;1.13;;
6292;SDS011;3179;54.350;10.102;2023-04-03T13:56:52;3.10;;;1.53;;
6292;SDS011;3179;54.350;10.102;2023-04-03T13:59:22;2.20;;;1.23;;
6292;SDS011;3179;54.350;10.102;2023-04-03T14:01:52;2.30;;;1.20;;
6292;SDS011;3179;54.350;10.102;2023-04-03T14:04:22;2.67;;;1.00;;
6292;SDS011;3179;54.350;10.102;2023-04-03T14:06:54;1.23;;;0.80;;
6292;SDS011;3179;54.350;10.102;2023-04-03T14:09:21;2.00;;;1.10;;
6292;SDS011;3179;54.350;10.102;2023-04-03T14:11:50;2.10;;;0.93;;
6292;SDS011;3179;54.350;10.102;2023-04-03T14:14:20;3.30;;;1.13;;
6292;SDS011;3179;54.350;10.102;2023-04-03T14:16:50;3.63;;;1.30;;
6292;SDS011;3179;54.350;10.102;2023-04-03T14:19:20;4.47;;;1.70;;
6292;SDS011;3179;54.350;10.102;2023-04-03T14:21:48;3.60;;;1.07;;
6292;SDS011;3179;54.350;10.102;2023-04-03T14:24:19;5.07;;;1.00;;
6292;SDS011;3179;54.350;10.102;2023-04-03T14:26:46;2.80;;;0.93;;
6292;SDS011;3179;54.350;10.102;2023-04-03T14:29:14;5.80;;;1.20;;
6292;SDS011;3179;54.350;10.102;2023-04-03T14:31:41;6.73;;;1.43;;
6292;SDS011;3179;54.350;10.102;2023-04-03T14:34:09;1.50;;;0.70;;
6292;SDS011;3179;54.350;10.102;2023-04-03T14:36:36;1.70;;;1.13;;
6292;SDS011;3179;54.350;10.102;2023-04-03T14:39:06;2.70;;;1.37;;
6292;SDS011;3179;54.350;10.102;2023-04-03T14:41:37;2.30;;;1.10;;
6292;SDS011;3179;54.350;10.102;2023-04-03T14:44:04;3.00;;;1.47;;
6292;SDS011;3179;54.350;10.102;2023-04-03T14:46:32;2.77;;;1.30;;
6292;SDS011;3179;54.350;10.102;2023-04-03T14:49:02;1.73;;;0.83;;
6292;SDS011;3179;54.350;10.102;2023-04-03T14:51:32;2.13;;;1.13;;
6292;SDS011;3179;54.350;10.102;2023-04-03T14:53:59;1.47;;;1.00;;
6292;SDS011;3179;54.350;10.102;2023-04-03T14:56:28;5.37;;;1.30;;
6292;SDS011;3179;54.350;10.102;2023-04-03T14:58:57;2.63;;;1.33;;
6292;SDS011;3179;54.350;10.102;2023-04-03T15:01:26;1.70;;;1.10;;
6292;SDS011;3179;54.350;10.102;2023-04-03T15:03:53;2.10;;;1.30;;
6292;SDS011;3179;54.350;10.102;2023-04-03T15:06:20;1.73;;;1.37;;
6292;SDS011;3179;54.350;10.102;2023-04-03T15:08:47;2.40;;;1.37;;
6292;SDS011;3179;54.350;10.102;2023-04-03T15:11:14;2.53;;;1.20;;
6292;SDS011;3179;54.350;10.102;2023-04-03T15:13:41;2.20;;;1.00;;
6292;SDS011;3179;54.350;10.102;2023-04-03T15:16:14;1.10;;;0.80;;
6292;SDS011;3179;54.350;10.102;2023-04-03T15:18:43;1.83;;;1.20;;
6292;SDS011;3179;54.350;10.102;2023-04-03T15:21:10;1.93;;;1.07;;
6292;SDS011;3179;54.350;10.102;2023-04-03T15:23:37;1.07;;;0.93;;
6292;SDS011;3179;54.350;10.102;2023-04-03T15:26:04;2.23;;;1.23;;
6292;SDS011;3179;54.350;10.102;2023-04-03T15:28:32;2.47;;;1.33;;
6292;SDS011;3179;54.350;10.102;2023-04-03T15:31:01;4.80;;;1.30;;
6292;SDS011;3179;54.350;10.102;2023-04-03T15:33:30;1.17;;;1.00;;
6292;SDS011;3179;54.350;10.102;2023-04-03T15:35:58;1.10;;;1.00;;
6292;SDS011;3179;54.350;10.102;2023-04-03T15:38:25;1.43;;;1.00;;